Time;durP1;ratioP1;P1;durP2;ratioP2;P2;SDS_P1;SDS_P2;PMS_P1;PMS_P2;Temp;Humidity;BMP_temperature;BMP_pressure;BME280_temperature;BME280_humidity;BME280_pressure;Samples;Min_cycle;Max_cycle;Signal;HPM_P1;HPM_P2
2022/08/05 00:01:30;;;;;;;6.70;3.92;;;;;;;28.60;39.76;100815.09;4914446;29;20052;-84
2022/08/05 00:04:17;;;;;;;6.93;3.67;;;;;;;29.69;39.74;100994.00;4914646;29;20064;-85
2022/08/05 00:06:44;;;;;;;5.32;3.85;;;;;;;29.43;39.96;100940.84;4915305;29;20056;-85
2022/08/05 00:09:17;;;;;;;4.15;3.60;;;;;;;29.73;39.59;101001.44;4931092;29;20052;-84
2022/08/05 00:11:46;;;;;;;6.97;3.47;;;;;;;29.36;39.92;100946.50;4947838;29;20130;-84
2022/08/05 00:14:22;;;;;;;5.25;3.92;;;;;;;29.06;39.94;100898.53;4947245;29;20048;-85
2022/08/05 00:16:57;;;;;;;4.60;3.97;;;;;;;29.63;40.19;100984.03;4932416;29;20070;-84
2022/08/05 00:19:24;;;;;;;5.03;3.65;;;;;;;28.39;40.06;100798.34;4933582;29;20087;-84
2022/08/05 00:22:00;;;;;;;5.53;3.85;;;;;;;29.58;40.17;100991.09;4946814;29;20135;-84
2022/08/05 00:24:26;;;;;;;11.82;5.13;;;;;;;29.57;40.21;100981.25;4932582;29;20055;-85
2022/08/05 00:26:58;;;;;;;3.90;3.50;;;;;;;29.00;40.24;100890.50;4933099;29;20059;-85
2022/08/05 00:29:25;;;;;;;4.88;4.10;;;;;;;29.55;40.64;100977.09;4932025;29;20403;-86
2022/08/05 00:31:58;;;;;;;7.85;4.20;;;;;;;29.46;40.44;100971.25;4931759;29;20054;-84
2022/08/05 00:34:43;;;;;;;8.38;3.42;;;;;;;29.19;40.04;100920.03;4931860;29;20055;-84
2022/08/05 00:37:29;;;;;;;4.05;3.60;;;;;;;29.65;40.15;100984.63;4931928;29;20316;-84
2022/08/05 00:40:17;;;;;;;6.25;3.83;;;;;;;29.47;40.08;100967.44;4945116;29;20814;-84
2022/08/05 00:42:56;;;;;;;9.57;4.28;;;;;;;29.07;40.38;100905.66;4931976;29;20055;-84
2022/08/05 00:45:23;;;;;;;8.40;4.25;;;;;;;29.21;40.28;100957.25;4932011;29;20052;-84
2022/08/05 00:48:05;;;;;;;6.10;3.65;;;;;;;29.23;40.73;100963.28;4931542;29;20055;-84
2022/08/05 00:50:33;;;;;;;4.72;4.22;;;;;;;29.12;40.79;100957.66;4947456;29;20052;-84
2022/08/05 00:53:01;;;;;;;6.32;3.95;;;;;;;29.20;40.93;100972.78;4947111;29;20047;-84
2022/08/05 00:55:27;;;;;;;4.70;4.30;;;;;;;29.21;41.22;100998.25;4947295;29;20067;-84
2022/08/05 00:58:12;;;;;;;9.98;4.60;;;;;;;29.15;41.10;100984.50;4945634;29;20043;-84
2022/08/05 01:00:39;;;;;;;10.70;4.55;;;;;;;29.06;41.21;100969.59;4931291;29;20486;-84
2022/08/05 01:03:09;;;;;;;4.68;4.13;;;;;;;28.96;41.23;100977.63;4929990;29;20312;-85
2022/08/05 01:05:49;;;;;;;8.25;4.22;;;;;;;27.97;41.05;100820.63;4931488;29;20055;-85
2022/08/05 01:08:17;;;;;;;4.50;4.10;;;;;;;28.19;41.84;100861.66;4937530;29;20342;-84
2022/08/05 01:11:28;;;;;;;5.75;4.07;;;;;;;28.96;42.08;100988.56;4912052;29;20056;-84
2022/08/05 01:14:08;;;;;;;4.68;4.15;;;;;;;28.58;41.84;100930.03;4912295;29;20063;-84
2022/08/05 01:16:47;;;;;;;6.13;3.67;;;;;;;28.61;41.50;100932.25;4912292;29;20056;-84
2022/08/05 01:19:20;;;;;;;4.35;3.88;;;;;;;29.02;41.10;100989.44;4912188;29;20142;-84
2022/08/05 01:22:30;;;;;;;6.57;4.50;;;;;;;27.96;41.04;100809.94;4911966;29;20056;-84
2022/08/05 01:25:02;;;;;;;7.40;3.90;;;;;;;29.12;40.78;100987.72;4924852;29;20056;-85
2022/08/05 01:27:51;;;;;;;4.35;3.80;;;;;;;28.67;41.14;100925.81;4911081;29;20353;-84
2022/08/05 01:30:22;;;;;;;;;;;;;;;28.97;41.23;100985.56;4911798;29;20070;-84
2022/08/05 01:33:04;;;;;;;8.48;4.07;;;;;;;28.74;41.42;100948.31;4924252;29;19923;-84
2022/08/05 01:35:36;;;;;;;5.60;4.20;;;;;;;28.99;41.25;100982.59;4910122;29;20578;-85
2022/08/05 01:38:20;;;;;;;6.43;4.07;;;;;;;28.99;41.04;100979.84;4923696;29;20135;-84
2022/08/05 01:40:55;;;;;;;4.53;4.13;;;;;;;29.02;40.89;100984.81;4909821;29;20088;-85
2022/08/05 01:43:23;;;;;;;6.78;3.88;;;;;;;28.83;41.03;100950.63;4909362;29;20095;-84
2022/08/05 01:45:52;;;;;;;5.63;3.80;;;;;;;28.64;41.49;100937.22;4925472;29;20052;-84
2022/08/05 01:48:25;;;;;;;4.07;3.70;;;;;;;28.75;41.50;100952.69;4924417;29;20510;-85
2022/08/05 01:50:54;;;;;;;10.15;4.72;;;;;;;27.94;41.35;100823.00;4910772;29;20052;-86
2022/08/05 01:53:23;;;;;;;3.67;3.35;;;;;;;28.39;41.61;100898.56;4916322;29;20056;-85
2022/08/05 01:56:12;;;;;;;4.88;3.78;;;;;;;28.77;41.72;100972.41;4926810;29;20139;-84
2022/08/05 01:59:02;;;;;;;5.63;5.03;;;;;;;28.74;41.67;100967.44;4911085;29;20363;-85
2022/08/05 02:01:31;;;;;;;4.43;3.90;;;;;;;28.68;41.61;100962.97;4933534;29;20104;-86
2022/08/05 02:04:08;;;;;;;8.98;3.53;;;;;;;28.63;41.25;100960.16;4949429;29;20124;-88
2022/08/05 02:06:37;;;;;;;4.22;3.85;;;;;;;28.69;41.31;100967.38;4922990;29;20494;-85
2022/08/05 02:09:06;;;;;;;5.90;3.30;;;;;;;28.55;41.44;100949.66;4925632;29;20071;-84
2022/08/05 02:11:48;;;;;;;4.03;3.60;;;;;;;28.70;41.74;100968.19;4944324;29;20401;-85
2022/08/05 02:14:27;;;;;;;3.70;3.40;;;;;;;28.36;41.45;100913.53;4928391;29;20150;-84
2022/08/05 02:17:04;;;;;;;4.25;3.30;;;;;;;28.65;41.64;100959.91;4943648;29;20055;-85
2022/08/05 02:19:36;;;;;;;3.90;3.50;;;;;;;28.61;41.41;100961.47;4928297;29;20061;-84
2022/08/05 02:22:19;;;;;;;3.50;3.20;;;;;;;28.22;41.89;100898.53;4928219;29;20058;-84
2022/08/05 02:25:01;;;;;;;3.83;3.42;;;;;;;27.65;41.48;100804.75;4928408;29;20139;-84
2022/08/05 02:27:31;;;;;;;5.18;3.50;;;;;;;28.35;41.52;100928.22;4927720;29;20307;-84
2022/08/05 02:30:18;;;;;;;4.07;3.63;;;;;;;28.52;41.61;100963.78;4929855;29;20123;-85
2022/08/05 02:32:50;;;;;;;4.85;3.33;;;;;;;27.88;41.50;100855.66;4929134;28;20107;-84
2022/08/05 02:35:20;;;;;;;3.72;3.42;;;;;;;28.46;41.83;100949.22;4928022;29;20077;-84
2022/08/05 02:37:55;;;;;;;4.25;3.50;;;;;;;27.40;41.78;100777.81;4943157;29;20051;-83
2022/08/05 02:40:26;;;;;;;4.00;3.70;;;;;;;28.45;41.57;100954.88;4943049;29;20087;-84
2022/08/05 02:42:55;;;;;;;3.90;3.25;;;;;;;28.44;41.56;100945.03;4927791;29;20071;-85
2022/08/05 02:45:23;;;;;;;6.85;4.13;;;;;;;28.30;41.85;100928.16;4927805;29;20116;-84
2022/08/05 02:47:53;;;;;;;4.30;3.13;;;;;;;28.27;42.03;100924.00;4928576;29;20070;-85
2022/08/05 02:50:41;;;;;;;6.55;4.13;;;;;;;28.35;41.83;100947.34;4928744;29;20530;-84
2022/08/05 02:53:11;;;;;;;7.65;3.75;;;;;;;28.22;41.69;100931.28;4943443;29;20050;-85
2022/08/05 02:55:49;;;;;;;4.70;4.10;;;;;;;28.27;41.65;100934.94;4927523;29;20067;-84
2022/08/05 02:58:26;;;;;;;3.60;3.30;;;;;;;28.30;41.73;100945.38;4927849;29;20063;-84
2022/08/05 03:00:59;;;;;;;4.43;3.50;;;;;;;28.28;41.50;100939.34;4927365;29;20372;-85
2022/08/05 03:03:28;;;;;;;4.97;3.42;;;;;;;26.98;41.75;100722.75;4927138;29;20098;-84
2022/08/05 03:06:16;;;;;;;4.03;3.70;;;;;;;27.70;41.20;100859.38;4940967;29;20055;-84
2022/08/05 03:09:03;;;;;;;4.95;3.38;;;;;;;27.14;41.34;100765.59;4913078;29;20044;-84
2022/08/05 03:11:33;;;;;;;5.22;3.60;;;;;;;27.62;41.23;100842.56;4908834;29;20483;-84
2022/08/05 03:14:20;;;;;;;6.20;3.60;;;;;;;28.32;41.50;100945.94;4908510;29;20044;-84
2022/08/05 03:16:47;;;;;;;3.45;3.22;;;;;;;26.97;41.61;100724.66;4924255;29;20227;-84
2022/08/05 03:19:13;;;;;;;5.40;3.63;;;;;;;28.30;41.55;100949.97;4908725;29;20075;-84
2022/08/05 03:22:00;;;;;;;4.55;3.67;;;;;;;28.25;41.09;100944.44;4908583;29;20048;-85
2022/08/05 03:24:28;;;;;;;3.85;3.30;;;;;;;27.73;41.33;100866.25;4908771;29;20593;-84
2022/08/05 03:26:58;;;;;;;4.80;3.55;;;;;;;28.24;41.44;100946.34;4927191;29;20450;-84
2022/08/05 03:29:25;;;;;;;6.85;3.90;;;;;;;28.20;41.35;100939.72;4912055;29;20047;-83
2022/08/05 03:32:14;;;;;;;5.57;4.28;;;;;;;28.09;41.81;100921.50;4925402;29;20044;-84
2022/08/05 03:34:42;;;;;;;7.35;4.07;;;;;;;27.13;41.85;100763.09;4912253;29;20056;-84
2022/08/05 03:37:19;;;;;;;5.57;4.13;;;;;;;27.96;42.02;100899.97;4912285;29;20084;-84
2022/08/05 03:39:54;;;;;;;7.82;4.63;;;;;;;28.20;42.17;100950.63;4913304;29;20144;-84
2022/08/05 03:42:26;;;;;;;5.90;3.88;;;;;;;27.95;42.37;100909.25;4913060;29;20343;-83
2022/08/05 03:44:54;;;;;;;4.97;4.18;;;;;;;28.15;42.57;100949.72;4912024;29;20591;-84
2022/08/05 03:47:22;;;;;;;7.82;3.78;;;;;;;28.12;42.52;100940.94;4911868;29;20052;-84
2022/08/05 03:49:51;;;;;;;7.93;4.93;;;;;;;27.49;42.57;100839.06;4911805;29;20056;-84
2022/08/05 03:52:28;;;;;;;7.95;4.18;;;;;;;27.41;42.79;100819.56;4916046;29;20498;-83
2022/08/05 03:55:21;;;;;;;4.05;3.65;;;;;;;27.49;42.33;100832.78;4921809;29;20048;-84
2022/08/05 03:58:11;;;;;;;6.65;3.88;;;;;;;27.75;42.04;100868.75;4928985;29;20095;-84
2022/08/05 04:00:39;;;;;;;7.13;4.00;;;;;;;27.56;42.23;100847.13;4927872;29;20044;-84
2022/08/05 04:03:14;;;;;;;4.55;3.65;;;;;;;28.13;42.36;100952.69;4926594;29;20503;-85
2022/08/05 04:05:56;;;;;;;9.52;4.10;;;;;;;27.61;42.13;100870.94;4913447;29;20066;-83
2022/08/05 04:08:25;;;;;;;5.10;3.88;;;;;;;28.06;42.21;100949.28;4923112;29;20364;-84
2022/08/05 04:11:03;;;;;;;7.20;4.13;;;;;;;27.17;42.92;100827.78;4945532;29;20206;-84
2022/08/05 04:13:32;;;;;;;7.93;4.10;;;;;;;27.44;42.77;100887.22;4930721;29;20133;-84
2022/08/05 04:16:18;;;;;;;7.55;4.60;;;;;;;26.59;43.21;100761.44;4943774;29;20423;-83
2022/08/05 04:18:51;;;;;;;7.15;4.53;;;;;;;27.21;43.21;100872.59;4945552;29;20056;-84
2022/08/05 04:21:20;;;;;;;6.10;4.57;;;;;;;26.59;43.19;100777.78;4946551;29;20052;-84
2022/08/05 04:24:07;;;;;;;5.18;4.20;;;;;;;27.60;43.54;100957.38;4943675;29;20058;-83
2022/08/05 04:26:34;;;;;;;7.43;4.53;;;;;;;27.63;43.47;100954.16;4930318;29;20479;-84
2022/08/05 04:29:01;;;;;;;5.28;4.13;;;;;;;27.85;42.91;100965.25;4945879;29;20142;-83
2022/08/05 04:31:33;;;;;;;8.32;4.72;;;;;;;27.87;42.93;100989.59;4930448;29;20062;-84
2022/08/05 04:34:04;;;;;;;;;;;;;;;27.69;43.74;100987.81;4930526;29;20047;-84
2022/08/05 04:36:50;;;;;;;4.95;3.90;;;;;;;26.58;43.30;100819.69;4930967;29;20013;-84
2022/08/05 04:39:18;;;;;;;5.90;4.30;;;;;;;26.64;43.59;100829.63;4932287;28;20043;-84
2022/08/05 04:41:46;;;;;;;5.88;4.35;;;;;;;27.40;43.91;100957.75;4946177;29;20059;-83
2022/08/05 04:44:13;;;;;;;11.88;5.13;;;;;;;27.03;43.75;100899.94;4929746;29;20058;-83
2022/08/05 04:46:46;;;;;;;8.27;4.82;;;;;;;27.46;44.52;100978.59;4945337;29;20052;-84
2022/08/05 04:49:14;;;;;;;14.52;5.13;;;;;;;26.84;44.16;100872.81;4930941;29;20048;-85
2022/08/05 04:51:44;;;;;;;6.55;4.85;;;;;;;27.03;44.73;100910.84;4945585;29;20056;-84
2022/08/05 04:54:11;;;;;;;7.00;4.88;;;;;;;27.17;44.40;100935.97;4945419;29;20055;-84
2022/08/05 04:56:38;;;;;;;5.70;4.50;;;;;;;27.01;44.74;100911.06;4945485;29;20087;-84
2022/08/05 04:59:05;;;;;;;7.63;5.30;;;;;;;27.55;44.43;100994.59;4945792;29;20063;-84
2022/08/05 05:01:50;;;;;;;5.80;4.78;;;;;;;27.49;44.34;100982.75;4943270;29;20075;-83
2022/08/05 05:04:36;;;;;;;8.65;7.85;;;;;;;27.36;44.30;100953.03;4942971;29;20477;-83
2022/08/05 05:07:09;;;;;;;9.18;4.88;;;;;;;27.64;44.60;100976.78;4929034;29;20054;-84
2022/08/05 05:09:36;;;;;;;7.07;5.15;;;;;;;27.74;44.42;100987.91;4930888;29;20059;-84
2022/08/05 05:12:04;;;;;;;8.05;4.38;;;;;;;27.64;44.44;100974.88;4945072;29;20044;-83
2022/08/05 05:14:31;;;;;;;11.23;5.25;;;;;;;27.92;43.80;100982.31;4930947;29;20550;-84
2022/08/05 05:17:02;;;;;;;6.07;5.13;;;;;;;27.70;43.91;100940.38;4945096;29;20059;-82
2022/08/05 05:19:33;;;;;;;5.70;4.63;;;;;;;27.67;43.61;100946.31;4944314;28;20474;-84
2022/08/05 05:22:11;;;;;;;8.07;4.95;;;;;;;27.12;43.92;100852.19;4930284;28;20090;-85
2022/08/05 05:24:55;;;;;;;7.32;4.55;;;;;;;27.89;43.52;100976.50;4930613;29;20075;-84
2022/08/05 05:27:30;;;;;;;6.25;5.28;;;;;;;27.84;44.37;100979.97;4930061;29;20110;-84
2022/08/05 05:30:11;;;;;;;5.93;4.53;;;;;;;27.61;44.82;100941.84;4928971;29;20071;-84
2022/08/05 05:32:54;;;;;;;10.57;5.03;;;;;;;27.75;44.03;100962.31;4929365;29;20150;-84
2022/08/05 05:35:21;;;;;;;6.63;4.28;;;;;;;27.80;44.37;100962.41;4929030;29;20391;-83
2022/08/05 05:37:50;;;;;;;5.18;4.65;;;;;;;27.94;44.86;100983.97;4943983;29;20450;-83
2022/08/05 05:40:28;;;;;;;6.53;5.50;;;;;;;27.97;44.70;100980.78;4942791;28;20043;-83
2022/08/05 05:42:56;;;;;;;17.27;5.53;;;;;;;27.54;44.71;100902.97;4928785;29;20059;-83
2022/08/05 05:45:22;;;;;;;9.20;5.53;;;;;;;27.89;44.58;100950.06;4945247;29;20134;-83
2022/08/05 05:47:50;;;;;;;6.47;4.78;;;;;;;26.83;44.80;100769.59;4944140;29;20067;-85
2022/08/05 05:50:35;;;;;;;13.40;5.20;;;;;;;27.91;44.50;100937.03;4931819;29;20043;-82
2022/08/05 05:53:10;;;;;;;9.20;4.72;;;;;;;28.12;44.29;100959.22;4951082;29;20056;-84
2022/08/05 05:55:49;;;;;;;5.00;4.50;;;;;;;27.68;44.16;100882.53;4950348;29;20052;-84
2022/08/05 05:58:26;;;;;;;7.53;4.38;;;;;;;28.27;43.83;100956.75;4929418;29;20051;-84
2022/08/05 06:01:00;;;;;;;14.65;5.10;;;;;;;28.38;44.36;100973.34;4930189;29;20047;-84
2022/08/05 06:03:38;;;;;;;7.53;4.87;;;;;;;27.89;44.25;100903.69;4928179;29;20067;-85
2022/08/05 06:06:25;;;;;;;8.15;4.20;;;;;;;28.50;44.33;100976.88;4929018;29;20647;-84
2022/08/05 06:08:57;;;;;;;5.93;4.50;;;;;;;28.57;44.41;100980.28;4929413;29;20056;-83
2022/08/05 06:11:24;;;;;;;4.88;4.30;;;;;;;28.27;43.63;100920.47;4910010;29;20056;-84
2022/08/05 06:13:51;;;;;;;5.53;5.03;;;;;;;28.59;43.05;100967.16;4909885;29;20052;-83
2022/08/05 06:16:21;;;;;;;5.18;4.78;;;;;;;28.61;43.48;100970.50;4925132;29;20107;-84
2022/08/05 06:19:00;;;;;;;8.02;4.47;;;;;;;28.44;43.46;100939.59;4909275;29;20525;-83
2022/08/05 06:21:33;;;;;;;7.05;4.78;;;;;;;28.82;42.99;100988.06;4909818;29;20304;-83
2022/08/05 06:24:08;;;;;;;9.52;4.55;;;;;;;28.95;43.00;100989.63;4911025;29;20566;-83
2022/08/05 06:26:41;;;;;;;12.75;5.43;;;;;;;28.99;42.75;100990.78;4909559;29;20079;-83
2022/08/05 06:29:19;;;;;;;14.32;5.03;;;;;;;29.03;42.71;100991.09;4909667;29;20561;-84
2022/08/05 06:32:06;;;;;;;13.02;5.38;;;;;;;28.71;42.93;100918.75;4909460;29;20574;-84
2022/08/05 06:34:51;;;;;;;10.45;5.43;;;;;;;28.73;43.00;100922.06;4909757;29;20056;-85
2022/08/05 06:37:22;;;;;;;17.85;5.93;;;;;;;28.84;43.06;100930.44;4927250;29;20052;-84
2022/08/05 06:40:09;;;;;;;15.10;5.40;;;;;;;29.37;43.04;100997.38;4931081;29;20056;-84
2022/08/05 06:42:38;;;;;;;10.90;5.70;;;;;;;29.48;42.66;100998.34;4923762;29;20044;-85
2022/08/05 06:45:06;;;;;;;7.05;5.00;;;;;;;29.23;41.82;100939.50;4927955;29;20048;-86
2022/08/05 06:47:34;;;;;;;10.05;4.95;;;;;;;29.58;41.83;100993.00;4923701;29;20063;-83
2022/08/05 06:50:21;;;;;;;7.82;5.13;;;;;;;29.69;42.23;100985.81;4910162;29;20557;-83
2022/08/05 06:52:49;;;;;;;7.45;4.13;;;;;;;29.79;42.15;100999.59;4925368;29;20079;-83
2022/08/05 06:55:29;;;;;;;7.35;4.50;;;;;;;29.15;41.92;100890.72;4909266;29;20067;-83
2022/08/05 06:58:02;;;;;;;12.20;5.20;;;;;;;29.90;40.99;100995.06;4908970;29;20419;-85
2022/08/05 07:00:48;;;;;;;9.07;4.50;;;;;;;29.93;41.12;100992.66;4921390;29;20134;-82
2022/08/05 07:03:16;;;;;;;10.05;4.57;;;;;;;30.02;40.30;101010.25;4908199;29;20454;-84
2022/08/05 07:05:43;;;;;;;8.38;4.50;;;;;;;29.87;40.33;100963.56;4924439;29;20052;-85
2022/08/05 07:08:15;;;;;;;5.88;4.30;;;;;;;30.00;40.76;100960.44;4925919;29;20122;-84
2022/08/05 07:10:41;;;;;;;4.80;3.50;;;;;;;29.84;39.51;100942.19;4908697;29;20067;-83
2022/08/05 07:19:31;;;;;;;8.85;4.07;;;;;;;30.40;39.20;100991.25;4891381;29;20060;-84
2022/08/05 07:22:21;;;;;;;4.90;4.40;;;;;;;30.32;39.56;100989.81;4903252;29;20332;-83
2022/08/05 07:24:59;;;;;;;5.13;4.20;;;;;;;30.28;38.62;100974.16;4904788;29;20063;-82
2022/08/05 07:27:48;;;;;;;6.80;4.45;;;;;;;30.54;38.21;100988.94;4891248;29;20147;-83
2022/08/05 07:30:32;;;;;;;6.70;4.53;;;;;;;30.69;38.41;101002.75;4903666;29;20057;-84
2022/08/05 07:33:02;;;;;;;7.38;4.00;;;;;;;30.32;37.72;100928.72;4905820;29;20064;-82
2022/08/05 07:35:35;;;;;;;6.15;4.03;;;;;;;30.80;38.04;100992.69;4904744;29;20072;-83
2022/08/05 07:38:22;;;;;;;6.10;4.28;;;;;;;30.69;37.96;100964.41;4890073;29;20056;-84
2022/08/05 07:41:08;;;;;;;5.88;3.88;;;;;;;30.88;37.48;100990.34;4903890;29;20112;-83
2022/08/05 07:43:57;;;;;;;5.57;4.40;;;;;;;30.89;37.66;100985.69;4903370;29;20067;-84
2022/08/05 07:46:29;;;;;;;7.60;4.65;;;;;;;30.75;37.13;100957.84;4905453;29;20066;-83
2022/08/05 07:48:58;;;;;;;11.52;4.70;;;;;;;31.03;37.26;100997.03;4905624;29;20157;-84
2022/08/05 07:51:35;;;;;;;7.95;4.55;;;;;;;31.12;36.71;100998.19;4906832;29;20542;-83
2022/08/05 07:54:20;;;;;;;7.43;5.03;;;;;;;30.26;36.37;100851.19;4908879;29;20071;-83
2022/08/05 07:56:51;;;;;;;10.10;4.55;;;;;;;31.11;36.58;100971.03;4909340;29;20056;-83
2022/08/05 07:59:38;;;;;;;9.43;4.38;;;;;;;31.33;36.39;100996.38;4903333;29;20142;-83
2022/08/05 08:02:09;;;;;;;8.27;3.80;;;;;;;31.35;36.18;100993.38;4889516;29;20065;-86
2022/08/05 08:04:49;;;;;;;6.63;4.60;;;;;;;30.87;36.09;100906.44;4904728;29;20049;-83
2022/08/05 08:07:19;;;;;;;5.05;4.55;;;;;;;31.07;36.31;100921.34;4907774;29;20116;-84
2022/08/05 08:09:50;;;;;;;7.13;4.18;;;;;;;31.65;35.60;100999.06;4927484;29;20059;-83
2022/08/05 08:12:19;;;;;;;7.40;4.45;;;;;;;31.77;35.08;100990.56;4945129;28;20047;-84
2022/08/05 08:15:09;;;;;;;10.52;4.43;;;;;;;31.45;35.16;100944.09;4944295;28;20458;-83
2022/08/05 08:17:43;;;;;;;8.93;4.00;;;;;;;31.51;34.71;100963.03;4932056;29;20134;-83
2022/08/05 08:20:18;;;;;;;7.90;4.10;;;;;;;31.80;34.50;100989.22;4931114;29;20494;-83
2022/08/05 08:23:06;;;;;;;4.07;3.78;;;;;;;31.76;34.45;100977.13;4944139;29;20146;-84
2022/08/05 08:25:53;;;;;;;8.75;4.28;;;;;;;31.59;34.85;100961.69;4943126;29;20067;-82
2022/08/05 08:28:28;;;;;;;11.32;5.07;;;;;;;31.90;35.43;100987.34;4944785;29;20050;-86
2022/08/05 08:31:03;;;;;;;6.70;4.32;;;;;;;31.95;34.80;100980.25;4930336;29;20055;-83
2022/08/05 08:33:30;;;;;;;5.63;4.13;;;;;;;31.94;34.32;100965.66;4946352;28;20127;-82
2022/08/05 08:36:03;;;;;;;6.72;3.90;;;;;;;32.08;35.02;100986.03;4944997;29;20457;-83
2022/08/05 08:38:53;;;;;;;7.75;3.70;;;;;;;32.20;35.30;100982.22;4931817;29;20048;-84
2022/08/05 08:41:21;;;;;;;;;;;;;;;32.32;34.29;100991.03;4946203;29;20056;-83
2022/08/05 08:44:10;;;;;;;5.57;4.30;;;;;;;31.21;34.47;100784.59;4931536;29;19922;-83
2022/08/05 08:46:56;;;;;;;7.40;4.00;;;;;;;32.45;34.30;100959.44;4930204;29;20059;-84
2022/08/05 08:49:25;;;;;;;5.72;4.35;;;;;;;32.18;34.38;100891.03;4945655;29;20043;-83
2022/08/05 08:52:18;;;;;;;4.90;3.40;;;;;;;32.68;32.62;100958.13;4943282;29;20077;-83
2022/08/05 08:54:46;;;;;;;4.22;3.92;;;;;;;32.13;32.83;100856.16;4930270;29;20067;-84
2022/08/05 08:57:13;;;;;;;12.70;4.20;;;;;;;32.23;33.35;100850.66;4945726;29;20048;-82
2022/08/05 08:59:43;;;;;;;6.85;4.30;;;;;;;32.94;33.36;100970.72;4945482;29;20063;-83
2022/08/05 09:02:17;;;;;;;6.45;3.90;;;;;;;32.40;33.53;100877.03;4929543;29;20134;-83
2022/08/05 09:04:46;;;;;;;7.85;4.88;;;;;;;33.04;33.72;100969.91;4945734;29;20062;-83
2022/08/05 09:07:33;;;;;;;8.32;4.32;;;;;;;32.76;33.81;100903.38;4926296;29;20499;-82
2022/08/05 09:10:20;;;;;;;7.22;4.10;;;;;;;33.04;33.70;100930.56;4910813;29;20143;-83
2022/08/05 09:12:53;;;;;;;5.00;4.60;;;;;;;32.91;32.66;100887.97;4925728;29;20066;-81
2022/08/05 09:15:22;;;;;;;4.57;4.28;;;;;;;33.23;32.21;100917.03;4926090;29;20456;-82
2022/08/05 09:17:50;;;;;;;3.85;3.55;;;;;;;33.66;32.38;100969.75;4910439;29;20310;-82
2022/08/05 09:20:18;;;;;;;6.82;4.65;;;;;;;33.53;32.07;100932.63;4910586;29;20224;-81
2022/08/05 09:23:13;;;;;;;4.65;3.90;;;;;;;33.78;32.09;100971.03;4923336;29;20071;-82
2022/08/05 09:26:04;;;;;;;5.43;4.28;;;;;;;34.00;31.82;100964.31;4911024;29;20076;-80
2022/08/05 09:28:36;;;;;;;4.13;3.83;;;;;;;34.21;29.23;100960.34;4910267;29;20059;-81
2022/08/05 09:31:04;;;;;;;6.93;4.25;;;;;;;34.15;29.34;100960.69;4910074;29;20064;-81
2022/08/05 09:33:53;;;;;;;4.28;3.90;;;;;;;34.28;29.99;100937.19;4910282;29;20502;-82
2022/08/05 09:36:22;;;;;;;4.75;4.28;;;;;;;34.21;29.52;100905.25;4911445;29;20573;-81
2022/08/05 09:39:04;;;;;;;3.80;3.35;;;;;;;34.80;28.83;100953.00;4926232;29;20139;-82
2022/08/05 09:42:02;;;;;;;4.57;3.97;;;;;;;34.59;28.12;100927.56;4924817;29;20063;-82
2022/08/05 09:44:47;;;;;;;9.68;3.80;;;;;;;34.84;28.13;100961.53;4910204;29;20056;-81
2022/08/05 09:47:17;;;;;;;5.15;3.35;;;;;;;34.88;28.57;100951.53;4910146;29;20269;-79
2022/08/05 09:49:50;;;;;;;5.60;3.70;;;;;;;35.00;28.78;100949.19;4910628;29;20387;-80
2022/08/05 09:52:33;;;;;;;5.40;3.83;;;;;;;35.21;28.60;100954.53;4913345;29;20316;-81
2022/08/05 09:55:08;;;;;;;8.23;3.90;;;;;;;35.34;27.90;100948.31;4913125;29;20052;-81
2022/08/05 09:57:55;;;;;;;7.63;4.00;;;;;;;35.48;27.91;100949.22;4910480;29;20139;-81
2022/08/05 10:00:26;;;;;;;5.32;3.60;;;;;;;35.60;27.19;100917.66;4925155;29;20052;-81
2022/08/05 10:02:55;;;;;;;4.13;3.33;;;;;;;34.68;26.48;100765.91;4908379;29;20060;-82
2022/08/05 10:05:26;;;;;;;5.13;3.50;;;;;;;35.34;25.93;100843.44;4908119;29;20059;-81
2022/08/05 10:07:59;;;;;;;4.22;3.10;;;;;;;35.99;25.50;100924.81;4915707;29;20518;-82
2022/08/05 10:10:48;;;;;;;3.97;2.83;;;;;;;35.91;25.30;100913.31;4941924;29;20142;-82
2022/08/05 10:13:26;;;;;;;3.70;3.00;;;;;;;36.08;25.18;100917.50;4928374;29;20066;-81
2022/08/05 10:16:32;;;;;;;3.70;3.25;;;;;;;36.34;24.82;100918.75;4928288;29;20056;-81
2022/08/05 10:19:07;;;;;;;6.95;3.20;;;;;;;36.28;25.07;100885.97;4943541;29;20059;-82
2022/08/05 10:21:37;;;;;;;4.93;2.93;;;;;;;36.44;24.95;100878.25;4943610;29;20508;-82
2022/08/05 10:24:11;;;;;;;4.30;3.10;;;;;;;36.84;24.91;100911.81;4944224;29;20402;-81
2022/08/05 10:26:41;;;;;;;3.42;3.13;;;;;;;37.02;24.21;100919.22;4928325;29;20047;-82
2022/08/05 10:29:20;;;;;;;3.53;3.10;;;;;;;36.99;24.42;100903.22;4927829;29;20052;-81
2022/08/05 10:31:49;;;;;;;3.55;3.15;;;;;;;37.24;24.07;100914.91;4929132;28;20051;-81
2022/08/05 10:34:36;;;;;;;2.83;2.63;;;;;;;37.15;24.41;100882.44;4941317;28;20058;-81
2022/08/05 10:37:07;;;;;;;3.40;3.10;;;;;;;37.51;24.05;100892.75;4943306;29;20055;-82
2022/08/05 10:39:37;;;;;;;4.88;3.00;;;;;;;37.61;23.54;100881.47;4943785;29;20059;-81
2022/08/05 10:42:27;;;;;;;6.30;3.25;;;;;;;37.54;23.77;100874.72;4928977;29;20091;-81
2022/08/05 10:45:00;;;;;;;4.15;3.50;;;;;;;37.69;23.94;100898.47;4943116;29;20059;-81
2022/08/05 10:47:46;;;;;;;3.83;2.97;;;;;;;37.70;24.31;100895.41;4927942;29;20498;-82
2022/08/05 10:51:01;;;;;;;4.18;3.20;;;;;;;37.84;23.41;100900.88;4941280;29;20051;-81
2022/08/05 10:53:34;;;;;;;4.07;2.90;;;;;;;37.92;24.07;100891.84;4927696;29;20510;-81
2022/08/05 10:56:13;;;;;;;3.40;3.15;;;;;;;37.57;23.52;100805.69;4931403;29;20059;-81
2022/08/05 10:58:53;;;;;;;4.63;3.40;;;;;;;38.40;23.43;100893.16;4932444;29;20062;-80
2022/08/05 11:01:37;;;;;;;4.90;3.63;;;;;;;38.48;23.04;100873.84;4928866;29;20054;-81
2022/08/05 11:04:26;;;;;;;6.90;3.00;;;;;;;38.59;22.69;100876.31;4929183;29;20512;-81
2022/08/05 11:06:56;;;;;;;5.57;3.00;;;;;;;38.75;23.33;100883.09;4928048;29;20380;-80
2022/08/05 11:09:24;;;;;;;5.90;3.53;;;;;;;38.58;23.26;100830.31;4909108;29;20470;-81
2022/08/05 11:12:49;;;;;;;2.85;2.65;;;;;;;39.02;22.37;100878.50;4909786;29;20139;-81
2022/08/05 11:15:26;;;;;;;5.53;3.20;;;;;;;38.94;22.28;100843.19;4924172;29;20514;-83
2022/08/05 11:18:31;;;;;;;3.65;3.35;;;;;;;39.26;22.68;100880.84;4910323;29;20312;-81
2022/08/05 11:21:01;;;;;;;3.60;3.30;;;;;;;39.47;22.50;100884.66;4914506;29;20063;-82
2022/08/05 11:23:40;;;;;;;4.28;3.28;;;;;;;39.59;21.88;100880.41;4938554;29;20048;-84
2022/08/05 11:26:27;;;;;;;3.63;3.33;;;;;;;39.66;22.10;100872.41;4922808;29;20079;-82
2022/08/05 11:29:02;;;;;;;5.07;3.28;;;;;;;39.72;22.08;100879.44;4924882;29;20066;-82
2022/08/05 11:31:40;;;;;;;3.75;3.03;;;;;;;39.88;22.05;100877.00;4908332;29;20058;-83
2022/08/05 11:34:38;;;;;;;6.25;3.00;;;;;;;39.98;21.49;100876.69;4909811;29;20045;-82
2022/08/05 11:37:53;;;;;;;3.13;2.88;;;;;;;40.06;21.48;100873.06;4908074;29;20447;-83
2022/08/05 11:40:54;;;;;;;3.40;3.10;;;;;;;40.24;21.05;100886.97;4913571;29;20171;-83
2022/08/05 11:43:29;;;;;;;3.67;3.38;;;;;;;40.22;21.31;100865.00;4909166;29;20063;-82
2022/08/05 11:46:16;;;;;;;5.03;3.13;;;;;;;40.09;20.99;100822.38;4910324;29;20403;-82
2022/08/05 11:48:59;;;;;;;6.50;2.92;;;;;;;40.53;20.85;100839.75;4917915;29;20063;-84
2022/08/05 11:51:28;;;;;;;3.42;2.80;;;;;;;40.63;20.98;100840.53;4933720;29;20063;-83
2022/08/05 11:54:12;;;;;;;4.30;3.13;;;;;;;40.13;20.88;100728.00;4926757;29;20167;-82
2022/08/05 11:56:47;;;;;;;3.38;2.60;;;;;;;41.00;20.65;100845.28;4913240;29;20150;-79
2022/08/05 11:59:25;;;;;;;2.75;2.55;;;;;;;40.88;20.47;100831.28;4911598;29;20561;-81
2022/08/05 12:02:00;;;;;;;3.50;3.20;;;;;;;41.28;20.62;100855.94;4928042;29;20071;-80
2022/08/05 12:04:36;;;;;;;5.50;2.90;;;;;;;41.38;20.09;100844.38;4911987;29;20478;-82
2022/08/05 12:07:10;;;;;;;3.70;3.03;;;;;;;41.54;19.86;100866.09;4912194;29;20071;-83
2022/08/05 12:09:40;;;;;;;10.65;3.00;;;;;;;41.05;20.33;100749.63;4946594;29;20048;-82
2022/08/05 12:12:23;;;;;;;8.05;3.08;;;;;;;41.92;19.46;100857.53;4930342;29;20177;-82
2022/08/05 12:14:51;;;;;;;3.03;2.83;;;;;;;41.40;19.52;100780.00;4927652;29;20495;-82